sensor_id;sensor_type;location;lat;lon;timestamp;P1;durP1;ratioP1;P2;durP2;ratioP2
16998;SDS011;10211;49.476;11.010;2023-02-28T00:00:07;4.67;;;2.80;;
16998;SDS011;10211;49.476;11.010;2023-02-28T00:02:36;4.17;;;2.50;;
16998;SDS011;10211;49.476;11.010;2023-02-28T00:05:03;3.67;;;2.40;;
16998;SDS011;10211;49.476;11.010;2023-02-28T00:07:31;2.20;;;2.00;;
16998;SDS011;10211;49.476;11.010;2023-02-28T00:09:58;3.33;;;2.83;;
16998;SDS011;10211;49.476;11.010;2023-02-28T00:12:25;2.83;;;2.60;;
16998;SDS011;10211;49.476;11.010;2023-02-28T00:14:53;2.47;;;2.10;;
16998;SDS011;10211;49.476;11.010;2023-02-28T00:17:20;2.30;;;2.10;;
16998;SDS011;10211;49.476;11.010;2023-02-28T00:19:47;3.03;;;2.10;;
16998;SDS011;10211;49.476;11.010;2023-02-28T00:22:14;3.23;;;2.23;;
16998;SDS011;10211;49.476;11.010;2023-02-28T00:24:41;4.73;;;2.17;;
16998;SDS011;10211;49.476;11.010;2023-02-28T00:27:08;2.50;;;2.30;;
16998;SDS011;10211;49.476;11.010;2023-02-28T00:29:36;2.90;;;2.40;;
16998;SDS011;10211;49.476;11.010;2023-02-28T00:32:05;2.93;;;2.63;;
16998;SDS011;10211;49.476;11.010;2023-02-28T00:34:32;2.33;;;1.80;;
16998;SDS011;10211;49.476;11.010;2023-02-28T00:37:02;2.57;;;2.10;;
16998;SDS011;10211;49.476;11.010;2023-02-28T00:39:30;2.20;;;2.00;;
16998;SDS011;10211;49.476;11.010;2023-02-28T00:41:56;2.90;;;2.60;;
16998;SDS011;10211;49.476;11.010;2023-02-28T00:44:23;2.03;;;1.80;;
16998;SDS011;10211;49.476;11.010;2023-02-28T00:46:50;4.50;;;2.50;;
16998;SDS011;10211;49.476;11.010;2023-02-28T00:49:20;2.43;;;2.17;;
16998;SDS011;10211;49.476;11.010;2023-02-28T00:51:47;4.20;;;2.53;;
16998;SDS011;10211;49.476;11.010;2023-02-28T00:54:14;3.40;;;2.60;;
16998;SDS011;10211;49.476;11.010;2023-02-28T00:56:41;2.47;;;2.27;;
16998;SDS011;10211;49.476;11.010;2023-02-28T00:59:08;3.57;;;2.73;;
16998;SDS011;10211;49.476;11.010;2023-02-28T01:01:34;2.80;;;1.90;;
16998;SDS011;10211;49.476;11.010;2023-02-28T01:04:01;2.73;;;2.33;;
16998;SDS011;10211;49.476;11.010;2023-02-28T01:06:29;3.27;;;2.00;;
16998;SDS011;10211;49.476;11.010;2023-02-28T01:08:56;2.93;;;2.70;;
16998;SDS011;10211;49.476;11.010;2023-02-28T01:11:23;2.60;;;2.40;;
16998;SDS011;10211;49.476;11.010;2023-02-28T01:13:50;3.50;;;2.57;;
16998;SDS011;10211;49.476;11.010;2023-02-28T01:16:17;4.87;;;2.67;;
16998;SDS011;10211;49.476;11.010;2023-02-28T01:18:44;2.47;;;2.27;;
16998;SDS011;10211;49.476;11.010;2023-02-28T01:21:13;3.77;;;2.50;;
16998;SDS011;10211;49.476;11.010;2023-02-28T01:23:43;3.93;;;2.57;;
16998;SDS011;10211;49.476;11.010;2023-02-28T01:26:10;3.10;;;2.17;;
16998;SDS011;10211;49.476;11.010;2023-02-28T01:28:39;3.93;;;2.50;;
16998;SDS011;10211;49.476;11.010;2023-02-28T01:31:06;2.80;;;2.60;;
16998;SDS011;10211;49.476;11.010;2023-02-28T01:33:34;3.43;;;2.80;;
16998;SDS011;10211;49.476;11.010;2023-02-28T01:36:02;4.00;;;2.80;;
16998;SDS011;10211;49.476;11.010;2023-02-28T01:38:30;6.83;;;2.73;;
16998;SDS011;10211;49.476;11.010;2023-02-28T01:40:58;2.57;;;2.30;;
16998;SDS011;10211;49.476;11.010;2023-02-28T01:43:27;3.27;;;2.07;;
16998;SDS011;10211;49.476;11.010;2023-02-28T01:45:55;3.77;;;2.20;;
16998;SDS011;10211;49.476;11.010;2023-02-28T01:48:24;2.97;;;2.23;;
16998;SDS011;10211;49.476;11.010;2023-02-28T01:51:10;5.90;;;2.40;;
16998;SDS011;10211;49.476;11.010;2023-02-28T01:53:41;3.30;;;2.37;;
16998;SDS011;10211;49.476;11.010;2023-02-28T01:56:13;4.77;;;2.60;;
16998;SDS011;10211;49.476;11.010;2023-02-28T01:58:48;4.13;;;2.43;;
16998;SDS011;10211;49.476;11.010;2023-02-28T02:01:16;2.43;;;2.23;;
16998;SDS011;10211;49.476;11.010;2023-02-28T02:03:46;6.23;;;2.80;;
16998;SDS011;10211;49.476;11.010;2023-02-28T02:06:20;3.50;;;2.37;;
16998;SDS011;10211;49.476;11.010;2023-02-28T02:08:47;4.10;;;2.97;;
16998;SDS011;10211;49.476;11.010;2023-02-28T02:11:19;2.50;;;2.30;;
16998;SDS011;10211;49.476;11.010;2023-02-28T02:13:56;2.60;;;2.00;;
16998;SDS011;10211;49.476;11.010;2023-02-28T02:16:40;3.80;;;2.43;;
16998;SDS011;10211;49.476;11.010;2023-02-28T02:19:27;3.33;;;2.23;;
16998;SDS011;10211;49.476;11.010;2023-02-28T02:22:20;4.60;;;2.07;;
16998;SDS011;10211;49.476;11.010;2023-02-28T02:25:16;3.03;;;2.20;;
16998;SDS011;10211;49.476;11.010;2023-02-28T02:30:59;5.33;;;2.13;;
16998;SDS011;10211;49.476;11.010;2023-02-28T02:36:51;3.73;;;2.37;;
16998;SDS011;10211;49.476;11.010;2023-02-28T02:39:26;5.13;;;3.03;;
16998;SDS011;10211;49.476;11.010;2023-02-28T02:41:59;4.37;;;2.80;;
16998;SDS011;10211;49.476;11.010;2023-02-28T02:44:29;3.23;;;2.73;;
16998;SDS011;10211;49.476;11.010;2023-02-28T02:47:01;2.97;;;2.60;;
16998;SDS011;10211;49.476;11.010;2023-02-28T02:49:33;3.83;;;2.90;;
16998;SDS011;10211;49.476;11.010;2023-02-28T02:52:02;5.33;;;3.00;;
16998;SDS011;10211;49.476;11.010;2023-02-28T02:54:32;3.30;;;2.63;;
16998;SDS011;10211;49.476;11.010;2023-02-28T02:57:02;2.70;;;2.43;;
16998;SDS011;10211;49.476;11.010;2023-02-28T02:59:33;2.63;;;2.43;;
16998;SDS011;10211;49.476;11.010;2023-02-28T03:02:02;4.47;;;2.63;;
16998;SDS011;10211;49.476;11.010;2023-02-28T03:04:35;3.50;;;2.70;;
16998;SDS011;10211;49.476;11.010;2023-02-28T03:07:06;4.10;;;2.97;;
16998;SDS011;10211;49.476;11.010;2023-02-28T03:09:33;3.20;;;2.60;;
16998;SDS011;10211;49.476;11.010;2023-02-28T03:12:00;2.50;;;2.30;;
16998;SDS011;10211;49.476;11.010;2023-02-28T03:14:32;4.90;;;3.07;;
16998;SDS011;10211;49.476;11.010;2023-02-28T03:17:11;4.07;;;2.90;;
16998;SDS011;10211;49.476;11.010;2023-02-28T03:20:01;3.33;;;3.00;;
16998;SDS011;10211;49.476;11.010;2023-02-28T03:25:29;3.10;;;2.50;;
16998;SDS011;10211;49.476;11.010;2023-02-28T03:28:02;4.00;;;2.60;;
16998;SDS011;10211;49.476;11.010;2023-02-28T03:30:39;4.20;;;3.20;;
16998;SDS011;10211;49.476;11.010;2023-02-28T03:33:14;5.43;;;3.30;;
16998;SDS011;10211;49.476;11.010;2023-02-28T03:35:48;3.63;;;2.87;;
16998;SDS011;10211;49.476;11.010;2023-02-28T03:38:21;3.83;;;3.10;;
16998;SDS011;10211;49.476;11.010;2023-02-28T03:40:55;4.53;;;3.00;;
16998;SDS011;10211;49.476;11.010;2023-02-28T03:43:27;5.73;;;3.93;;
16998;SDS011;10211;49.476;11.010;2023-02-28T03:45:56;6.87;;;3.40;;
16998;SDS011;10211;49.476;11.010;2023-02-28T03:48:27;4.43;;;3.33;;
16998;SDS011;10211;49.476;11.010;2023-02-28T03:50:59;6.30;;;3.50;;
16998;SDS011;10211;49.476;11.010;2023-02-28T03:53:29;4.03;;;3.30;;
16998;SDS011;10211;49.476;11.010;2023-02-28T03:56:01;6.73;;;3.47;;
16998;SDS011;10211;49.476;11.010;2023-02-28T03:58:34;3.93;;;3.33;;
16998;SDS011;10211;49.476;11.010;2023-02-28T04:01:07;5.10;;;3.73;;
16998;SDS011;10211;49.476;11.010;2023-02-28T04:03:36;5.03;;;3.90;;
16998;SDS011;10211;49.476;11.010;2023-02-28T04:06:05;5.73;;;3.30;;
16998;SDS011;10211;49.476;11.010;2023-02-28T04:08:34;5.70;;;3.00;;
16998;SDS011;10211;49.476;11.010;2023-02-28T04:11:01;6.40;;;3.90;;
16998;SDS011;10211;49.476;11.010;2023-02-28T04:13:32;5.70;;;3.83;;
16998;SDS011;10211;49.476;11.010;2023-02-28T04:15:59;4.90;;;3.60;;
16998;SDS011;10211;49.476;11.010;2023-02-28T04:18:26;5.67;;;4.13;;
16998;SDS011;10211;49.476;11.010;2023-02-28T04:20:52;6.93;;;4.60;;
16998;SDS011;10211;49.476;11.010;2023-02-28T04:23:20;6.27;;;3.43;;
16998;SDS011;10211;49.476;11.010;2023-02-28T04:25:47;4.17;;;3.57;;
16998;SDS011;10211;49.476;11.010;2023-02-28T04:28:16;6.23;;;3.60;;
16998;SDS011;10211;49.476;11.010;2023-02-28T04:30:42;7.23;;;3.97;;
16998;SDS011;10211;49.476;11.010;2023-02-28T04:33:09;6.73;;;3.83;;
16998;SDS011;10211;49.476;11.010;2023-02-28T04:35:36;5.97;;;3.57;;
16998;SDS011;10211;49.476;11.010;2023-02-28T04:38:03;5.80;;;3.43;;
16998;SDS011;10211;49.476;11.010;2023-02-28T04:40:31;4.63;;;3.50;;
16998;SDS011;10211;49.476;11.010;2023-02-28T04:42:58;5.17;;;3.40;;
16998;SDS011;10211;49.476;11.010;2023-02-28T04:45:24;5.17;;;3.47;;
16998;SDS011;10211;49.476;11.010;2023-02-28T04:47:51;4.50;;;3.73;;
16998;SDS011;10211;49.476;11.010;2023-02-28T04:50:18;4.87;;;3.57;;
16998;SDS011;10211;49.476;11.010;2023-02-28T04:52:45;4.57;;;3.77;;
16998;SDS011;10211;49.476;11.010;2023-02-28T04:55:12;4.33;;;3.90;;
16998;SDS011;10211;49.476;11.010;2023-02-28T04:57:40;5.27;;;4.20;;
16998;SDS011;10211;49.476;11.010;2023-02-28T05:00:08;4.50;;;3.30;;
16998;SDS011;10211;49.476;11.010;2023-02-28T05:02:36;5.30;;;3.60;;
16998;SDS011;10211;49.476;11.010;2023-02-28T05:05:04;3.93;;;3.57;;
16998;SDS011;10211;49.476;11.010;2023-02-28T05:07:31;7.90;;;4.13;;
16998;SDS011;10211;49.476;11.010;2023-02-28T05:09:57;6.43;;;3.83;;
16998;SDS011;10211;49.476;11.010;2023-02-28T05:12:24;4.17;;;3.70;;
16998;SDS011;10211;49.476;11.010;2023-02-28T05:14:52;6.23;;;3.50;;
16998;SDS011;10211;49.476;11.010;2023-02-28T05:17:19;4.40;;;3.70;;
16998;SDS011;10211;49.476;11.010;2023-02-28T05:19:46;4.97;;;3.80;;
16998;SDS011;10211;49.476;11.010;2023-02-28T05:22:13;5.23;;;3.73;;
16998;SDS011;10211;49.476;11.010;2023-02-28T05:24:41;7.03;;;4.07;;
16998;SDS011;10211;49.476;11.010;2023-02-28T05:27:08;8.17;;;4.23;;
16998;SDS011;10211;49.476;11.010;2023-02-28T05:29:35;7.67;;;4.77;;
16998;SDS011;10211;49.476;11.010;2023-02-28T05:32:08;5.30;;;3.70;;
16998;SDS011;10211;49.476;11.010;2023-02-28T05:34:35;5.47;;;3.70;;
16998;SDS011;10211;49.476;11.010;2023-02-28T05:37:03;6.70;;;4.67;;
16998;SDS011;10211;49.476;11.010;2023-02-28T05:39:30;10.93;;;4.90;;
16998;SDS011;10211;49.476;11.010;2023-02-28T05:41:57;4.83;;;3.77;;
16998;SDS011;10211;49.476;11.010;2023-02-28T05:44:24;8.53;;;4.60;;
16998;SDS011;10211;49.476;11.010;2023-02-28T05:46:50;7.97;;;4.23;;
16998;SDS011;10211;49.476;11.010;2023-02-28T05:49:18;5.90;;;4.90;;
16998;SDS011;10211;49.476;11.010;2023-02-28T05:51:46;7.17;;;4.60;;
16998;SDS011;10211;49.476;11.010;2023-02-28T05:54:13;9.97;;;4.63;;
16998;SDS011;10211;49.476;11.010;2023-02-28T05:56:40;6.80;;;4.83;;
16998;SDS011;10211;49.476;11.010;2023-02-28T05:59:09;5.77;;;4.33;;
16998;SDS011;10211;49.476;11.010;2023-02-28T06:01:36;7.97;;;4.97;;
16998;SDS011;10211;49.476;11.010;2023-02-28T06:04:05;7.43;;;4.50;;
16998;SDS011;10211;49.476;11.010;2023-02-28T06:06:35;6.33;;;4.47;;
16998;SDS011;10211;49.476;11.010;2023-02-28T06:09:02;10.27;;;4.97;;
16998;SDS011;10211;49.476;11.010;2023-02-28T06:11:30;7.73;;;4.00;;
16998;SDS011;10211;49.476;11.010;2023-02-28T06:13:57;5.63;;;5.00;;
16998;SDS011;10211;49.476;11.010;2023-02-28T06:16:25;8.60;;;4.93;;
16998;SDS011;10211;49.476;11.010;2023-02-28T06:18:53;6.40;;;4.50;;
16998;SDS011;10211;49.476;11.010;2023-02-28T06:21:21;9.63;;;4.47;;
16998;SDS011;10211;49.476;11.010;2023-02-28T06:23:49;8.90;;;4.97;;
16998;SDS011;10211;49.476;11.010;2023-02-28T06:26:16;5.33;;;3.97;;
16998;SDS011;10211;49.476;11.010;2023-02-28T06:28:42;4.20;;;3.80;;
16998;SDS011;10211;49.476;11.010;2023-02-28T06:31:10;7.03;;;4.37;;
16998;SDS011;10211;49.476;11.010;2023-02-28T06:33:38;5.10;;;4.40;;
16998;SDS011;10211;49.476;11.010;2023-02-28T06:36:06;10.57;;;4.13;;
16998;SDS011;10211;49.476;11.010;2023-02-28T06:38:34;8.43;;;4.63;;
16998;SDS011;10211;49.476;11.010;2023-02-28T06:41:03;6.73;;;4.37;;
16998;SDS011;10211;49.476;11.010;2023-02-28T06:43:31;6.73;;;4.63;;
16998;SDS011;10211;49.476;11.010;2023-02-28T06:46:00;10.73;;;4.60;;
16998;SDS011;10211;49.476;11.010;2023-02-28T06:48:27;9.00;;;5.43;;
16998;SDS011;10211;49.476;11.010;2023-02-28T06:51:00;5.47;;;4.67;;
16998;SDS011;10211;49.476;11.010;2023-02-28T06:53:28;5.90;;;4.40;;
16998;SDS011;10211;49.476;11.010;2023-02-28T06:55:54;6.27;;;4.60;;
16998;SDS011;10211;49.476;11.010;2023-02-28T06:58:25;7.03;;;4.50;;
16998;SDS011;10211;49.476;11.010;2023-02-28T07:00:52;8.53;;;4.20;;
16998;SDS011;10211;49.476;11.010;2023-02-28T07:03:19;7.23;;;4.40;;
16998;SDS011;10211;49.476;11.010;2023-02-28T07:05:46;4.80;;;4.10;;
16998;SDS011;10211;49.476;11.010;2023-02-28T07:08:13;5.77;;;4.50;;
16998;SDS011;10211;49.476;11.010;2023-02-28T07:10:40;7.43;;;4.17;;
16998;SDS011;10211;49.476;11.010;2023-02-28T07:13:07;9.97;;;4.40;;
16998;SDS011;10211;49.476;11.010;2023-02-28T07:15:36;6.50;;;4.40;;
16998;SDS011;10211;49.476;11.010;2023-02-28T07:18:02;7.53;;;4.00;;
16998;SDS011;10211;49.476;11.010;2023-02-28T07:20:30;4.63;;;3.63;;
16998;SDS011;10211;49.476;11.010;2023-02-28T07:22:56;6.07;;;3.80;;
16998;SDS011;10211;49.476;11.010;2023-02-28T07:25:24;6.97;;;4.33;;
16998;SDS011;10211;49.476;11.010;2023-02-28T07:27:51;12.20;;;4.27;;
16998;SDS011;10211;49.476;11.010;2023-02-28T07:30:19;5.83;;;3.90;;
16998;SDS011;10211;49.476;11.010;2023-02-28T07:32:47;7.60;;;3.73;;
16998;SDS011;10211;49.476;11.010;2023-02-28T07:35:14;10.17;;;5.13;;
16998;SDS011;10211;49.476;11.010;2023-02-28T07:37:41;6.23;;;4.53;;
16998;SDS011;10211;49.476;11.010;2023-02-28T07:40:09;7.23;;;4.87;;
16998;SDS011;10211;49.476;11.010;2023-02-28T07:42:37;11.00;;;4.90;;
16998;SDS011;10211;49.476;11.010;2023-02-28T07:45:04;6.27;;;4.43;;
16998;SDS011;10211;49.476;11.010;2023-02-28T07:47:32;5.93;;;4.70;;
16998;SDS011;10211;49.476;11.010;2023-02-28T07:50:00;13.25;;;7.30;;
16998;SDS011;10211;49.476;11.010;2023-02-28T07:52:27;12.50;;;5.00;;
16998;SDS011;10211;49.476;11.010;2023-02-28T07:54:53;11.93;;;4.67;;
16998;SDS011;10211;49.476;11.010;2023-02-28T07:57:21;7.63;;;4.73;;
16998;SDS011;10211;49.476;11.010;2023-02-28T07:59:48;8.63;;;4.50;;
16998;SDS011;10211;49.476;11.010;2023-02-28T08:02:15;9.33;;;4.30;;
16998;SDS011;10211;49.476;11.010;2023-02-28T08:04:43;8.50;;;4.60;;
16998;SDS011;10211;49.476;11.010;2023-02-28T08:07:13;9.97;;;5.17;;
16998;SDS011;10211;49.476;11.010;2023-02-28T08:09:41;6.27;;;4.20;;
16998;SDS011;10211;49.476;11.010;2023-02-28T08:12:08;5.73;;;4.70;;
16998;SDS011;10211;49.476;11.010;2023-02-28T08:14:36;8.80;;;5.27;;
16998;SDS011;10211;49.476;11.010;2023-02-28T08:17:04;8.80;;;4.10;;
16998;SDS011;10211;49.476;11.010;2023-02-28T08:19:31;5.73;;;4.17;;
16998;SDS011;10211;49.476;11.010;2023-02-28T08:21:58;5.37;;;4.47;;
16998;SDS011;10211;49.476;11.010;2023-02-28T08:24:26;6.00;;;4.50;;
16998;SDS011;10211;49.476;11.010;2023-02-28T08:26:54;6.57;;;4.77;;
16998;SDS011;10211;49.476;11.010;2023-02-28T08:29:21;8.97;;;4.47;;
16998;SDS011;10211;49.476;11.010;2023-02-28T08:31:47;5.43;;;4.23;;
16998;SDS011;10211;49.476;11.010;2023-02-28T08:34:14;6.83;;;4.20;;
16998;SDS011;10211;49.476;11.010;2023-02-28T08:36:42;7.53;;;4.70;;
16998;SDS011;10211;49.476;11.010;2023-02-28T08:39:09;6.93;;;4.50;;
16998;SDS011;10211;49.476;11.010;2023-02-28T08:41:38;6.87;;;4.97;;
16998;SDS011;10211;49.476;11.010;2023-02-28T08:44:06;8.63;;;5.00;;
16998;SDS011;10211;49.476;11.010;2023-02-28T08:46:32;4.93;;;4.47;;
16998;SDS011;10211;49.476;11.010;2023-02-28T08:48:59;8.90;;;4.97;;
16998;SDS011;10211;49.476;11.010;2023-02-28T08:51:26;7.43;;;4.90;;
16998;SDS011;10211;49.476;11.010;2023-02-28T08:53:55;6.63;;;3.97;;
16998;SDS011;10211;49.476;11.010;2023-02-28T08:56:24;8.17;;;5.03;;
16998;SDS011;10211;49.476;11.010;2023-02-28T08:58:53;6.67;;;4.60;;
16998;SDS011;10211;49.476;11.010;2023-02-28T09:01:22;7.43;;;5.10;;
16998;SDS011;10211;49.476;11.010;2023-02-28T09:03:50;7.73;;;5.00;;
16998;SDS011;10211;49.476;11.010;2023-02-28T09:06:17;6.20;;;4.70;;
16998;SDS011;10211;49.476;11.010;2023-02-28T09:08:46;6.97;;;4.13;;
16998;SDS011;10211;49.476;11.010;2023-02-28T09:11:13;8.20;;;4.67;;
16998;SDS011;10211;49.476;11.010;2023-02-28T09:13:40;6.73;;;4.73;;
16998;SDS011;10211;49.476;11.010;2023-02-28T09:16:10;10.97;;;4.80;;
16998;SDS011;10211;49.476;11.010;2023-02-28T09:18:38;6.33;;;4.53;;
16998;SDS011;10211;49.476;11.010;2023-02-28T09:21:05;7.57;;;5.40;;
16998;SDS011;10211;49.476;11.010;2023-02-28T09:23:33;8.90;;;4.77;;
16998;SDS011;10211;49.476;11.010;2023-02-28T09:26:00;6.23;;;4.37;;
16998;SDS011;10211;49.476;11.010;2023-02-28T09:28:26;11.83;;;4.83;;
16998;SDS011;10211;49.476;11.010;2023-02-28T09:30:53;6.30;;;5.07;;
16998;SDS011;10211;49.476;11.010;2023-02-28T09:33:23;12.83;;;4.53;;
16998;SDS011;10211;49.476;11.010;2023-02-28T09:35:51;7.53;;;4.43;;
16998;SDS011;10211;49.476;11.010;2023-02-28T09:38:24;10.13;;;5.20;;
16998;SDS011;10211;49.476;11.010;2023-02-28T09:40:51;14.47;;;5.93;;
16998;SDS011;10211;49.476;11.010;2023-02-28T09:43:22;8.90;;;4.83;;
16998;SDS011;10211;49.476;11.010;2023-02-28T09:45:52;5.93;;;4.60;;
16998;SDS011;10211;49.476;11.010;2023-02-28T09:48:28;9.50;;;5.67;;
16998;SDS011;10211;49.476;11.010;2023-02-28T09:51:00;6.40;;;5.20;;
16998;SDS011;10211;49.476;11.010;2023-02-28T09:53:30;7.93;;;4.73;;
16998;SDS011;10211;49.476;11.010;2023-02-28T09:55:59;5.53;;;4.00;;
16998;SDS011;10211;49.476;11.010;2023-02-28T09:58:31;7.13;;;5.10;;
16998;SDS011;10211;49.476;11.010;2023-02-28T10:01:03;7.37;;;4.50;;
16998;SDS011;10211;49.476;11.010;2023-02-28T10:03:40;7.23;;;4.23;;
16998;SDS011;10211;49.476;11.010;2023-02-28T10:06:13;8.47;;;5.27;;
16998;SDS011;10211;49.476;11.010;2023-02-28T10:08:43;7.87;;;5.60;;
16998;SDS011;10211;49.476;11.010;2023-02-28T10:11:17;6.77;;;4.03;;
16998;SDS011;10211;49.476;11.010;2023-02-28T10:13:48;7.63;;;4.20;;
16998;SDS011;10211;49.476;11.010;2023-02-28T10:16:21;5.97;;;4.70;;
16998;SDS011;10211;49.476;11.010;2023-02-28T10:18:54;5.90;;;4.17;;
16998;SDS011;10211;49.476;11.010;2023-02-28T10:21:24;6.90;;;4.33;;
16998;SDS011;10211;49.476;11.010;2023-02-28T10:23:58;5.93;;;4.50;;
16998;SDS011;10211;49.476;11.010;2023-02-28T10:26:31;5.67;;;4.70;;
16998;SDS011;10211;49.476;11.010;2023-02-28T10:28:58;7.33;;;4.53;;
16998;SDS011;10211;49.476;11.010;2023-02-28T10:31:26;6.37;;;4.67;;
16998;SDS011;10211;49.476;11.010;2023-02-28T10:33:54;6.33;;;4.20;;
16998;SDS011;10211;49.476;11.010;2023-02-28T10:36:21;6.37;;;4.00;;
16998;SDS011;10211;49.476;11.010;2023-02-28T10:38:48;5.77;;;3.53;;
16998;SDS011;10211;49.476;11.010;2023-02-28T10:41:16;6.37;;;4.23;;
16998;SDS011;10211;49.476;11.010;2023-02-28T10:43:53;7.03;;;4.13;;
16998;SDS011;10211;49.476;11.010;2023-02-28T10:46:39;5.93;;;3.97;;
16998;SDS011;10211;49.476;11.010;2023-02-28T10:49:11;7.00;;;4.30;;
16998;SDS011;10211;49.476;11.010;2023-02-28T10:51:40;5.57;;;4.20;;
16998;SDS011;10211;49.476;11.010;2023-02-28T10:54:14;9.03;;;4.57;;
16998;SDS011;10211;49.476;11.010;2023-02-28T10:56:42;5.93;;;4.13;;
16998;SDS011;10211;49.476;11.010;2023-02-28T10:59:22;6.97;;;4.90;;
16998;SDS011;10211;49.476;11.010;2023-02-28T11:01:53;7.47;;;4.23;;
16998;SDS011;10211;49.476;11.010;2023-02-28T11:04:31;7.50;;;4.67;;
16998;SDS011;10211;49.476;11.010;2023-02-28T11:07:01;5.30;;;4.57;;
16998;SDS011;10211;49.476;11.010;2023-02-28T11:09:32;6.87;;;4.00;;
16998;SDS011;10211;49.476;11.010;2023-02-28T11:12:00;5.80;;;3.80;;
16998;SDS011;10211;49.476;11.010;2023-02-28T11:14:29;5.80;;;4.10;;
16998;SDS011;10211;49.476;11.010;2023-02-28T11:17:00;5.57;;;3.90;;
16998;SDS011;10211;49.476;11.010;2023-02-28T11:19:39;6.43;;;3.93;;
16998;SDS011;10211;49.476;11.010;2023-02-28T11:22:10;5.07;;;3.87;;
16998;SDS011;10211;49.476;11.010;2023-02-28T11:24:43;4.23;;;3.70;;
16998;SDS011;10211;49.476;11.010;2023-02-28T11:27:24;4.93;;;4.10;;
16998;SDS011;10211;49.476;11.010;2023-02-28T11:29:52;4.83;;;3.87;;
16998;SDS011;10211;49.476;11.010;2023-02-28T11:32:19;3.72;;;3.30;;
16998;SDS011;10211;49.476;11.010;2023-02-28T11:35:01;4.65;;;4.25;;
16998;SDS011;10211;49.476;11.010;2023-02-28T11:37:39;5.95;;;4.07;;
16998;SDS011;10211;49.476;11.010;2023-02-28T11:40:09;6.78;;;4.15;;
16998;SDS011;10211;49.476;11.010;2023-02-28T11:42:43;4.72;;;3.92;;
16998;SDS011;10211;49.476;11.010;2023-02-28T11:45:26;4.53;;;4.13;;
16998;SDS011;10211;49.476;11.010;2023-02-28T11:48:09;4.47;;;3.80;;
16998;SDS011;10211;49.476;11.010;2023-02-28T11:50:47;4.22;;;3.80;;
16998;SDS011;10211;49.476;11.010;2023-02-28T11:53:22;7.28;;;4.47;;
16998;SDS011;10211;49.476;11.010;2023-02-28T11:56:06;5.95;;;4.07;;
16998;SDS011;10211;49.476;11.010;2023-02-28T11:58:44;5.30;;;4.20;;
16998;SDS011;10211;49.476;11.010;2023-02-28T12:01:24;4.27;;;3.83;;
16998;SDS011;10211;49.476;11.010;2023-02-28T12:03:58;4.23;;;3.87;;
16998;SDS011;10211;49.476;11.010;2023-02-28T12:06:32;4.60;;;4.10;;
16998;SDS011;10211;49.476;11.010;2023-02-28T12:09:12;4.47;;;3.40;;
16998;SDS011;10211;49.476;11.010;2023-02-28T12:12:01;7.50;;;5.00;;
16998;SDS011;10211;49.476;11.010;2023-02-28T12:14:47;5.23;;;4.47;;
16998;SDS011;10211;49.476;11.010;2023-02-28T12:17:32;6.43;;;4.50;;
16998;SDS011;10211;49.476;11.010;2023-02-28T12:20:12;7.47;;;4.27;;
16998;SDS011;10211;49.476;11.010;2023-02-28T12:22:49;6.73;;;4.10;;
16998;SDS011;10211;49.476;11.010;2023-02-28T12:25:42;5.20;;;3.70;;
16998;SDS011;10211;49.476;11.010;2023-02-28T12:28:18;6.20;;;4.67;;
16998;SDS011;10211;49.476;11.010;2023-02-28T12:30:50;7.07;;;4.43;;
16998;SDS011;10211;49.476;11.010;2023-02-28T12:33:24;6.67;;;3.90;;
16998;SDS011;10211;49.476;11.010;2023-02-28T12:35:55;5.73;;;4.30;;
16998;SDS011;10211;49.476;11.010;2023-02-28T12:38:25;4.70;;;3.80;;
16998;SDS011;10211;49.476;11.010;2023-02-28T12:40:56;5.57;;;4.10;;
16998;SDS011;10211;49.476;11.010;2023-02-28T12:43:27;5.57;;;3.67;;
16998;SDS011;10211;49.476;11.010;2023-02-28T12:45:59;6.40;;;4.23;;
16998;SDS011;10211;49.476;11.010;2023-02-28T12:48:31;5.37;;;4.13;;
16998;SDS011;10211;49.476;11.010;2023-02-28T12:51:05;5.90;;;4.53;;
16998;SDS011;10211;49.476;11.010;2023-02-28T12:53:38;6.83;;;4.80;;
16998;SDS011;10211;49.476;11.010;2023-02-28T12:56:29;6.63;;;4.07;;
16998;SDS011;10211;49.476;11.010;2023-02-28T12:59:03;7.10;;;4.33;;
16998;SDS011;10211;49.476;11.010;2023-02-28T13:01:42;5.40;;;4.00;;
16998;SDS011;10211;49.476;11.010;2023-02-28T13:07:16;5.73;;;4.13;;
16998;SDS011;10211;49.476;11.010;2023-02-28T13:10:14;5.40;;;4.33;;
16998;SDS011;10211;49.476;11.010;2023-02-28T13:12:47;5.67;;;4.30;;
16998;SDS011;10211;49.476;11.010;2023-02-28T13:15:16;5.87;;;4.43;;
16998;SDS011;10211;49.476;11.010;2023-02-28T13:17:47;6.27;;;4.37;;
16998;SDS011;10211;49.476;11.010;2023-02-28T13:20:16;5.40;;;4.27;;
16998;SDS011;10211;49.476;11.010;2023-02-28T13:22:44;6.93;;;4.73;;
16998;SDS011;10211;49.476;11.010;2023-02-28T13:31:32;6.57;;;4.70;;
16998;SDS011;10211;49.476;11.010;2023-02-28T13:34:27;7.17;;;4.70;;
16998;SDS011;10211;49.476;11.010;2023-02-28T13:36:59;11.07;;;6.87;;
16998;SDS011;10211;49.476;11.010;2023-02-28T13:40:13;8.17;;;5.20;;
16998;SDS011;10211;49.476;11.010;2023-02-28T13:42:54;6.90;;;4.47;;
16998;SDS011;10211;49.476;11.010;2023-02-28T13:45:25;6.57;;;4.30;;
16998;SDS011;10211;49.476;11.010;2023-02-28T13:47:57;5.17;;;4.50;;
16998;SDS011;10211;49.476;11.010;2023-02-28T13:50:27;5.93;;;5.03;;
16998;SDS011;10211;49.476;11.010;2023-02-28T13:56:03;7.77;;;5.23;;
16998;SDS011;10211;49.476;11.010;2023-02-28T13:58:39;7.10;;;4.93;;
16998;SDS011;10211;49.476;11.010;2023-02-28T14:01:22;6.97;;;4.83;;
16998;SDS011;10211;49.476;11.010;2023-02-28T14:04:19;6.77;;;5.00;;
16998;SDS011;10211;49.476;11.010;2023-02-28T14:07:21;5.90;;;4.90;;
16998;SDS011;10211;49.476;11.010;2023-02-28T14:10:01;8.63;;;4.77;;
16998;SDS011;10211;49.476;11.010;2023-02-28T14:15:28;7.87;;;4.87;;
16998;SDS011;10211;49.476;11.010;2023-02-28T14:18:05;6.53;;;5.13;;
16998;SDS011;10211;49.476;11.010;2023-02-28T14:20:43;7.23;;;4.93;;
16998;SDS011;10211;49.476;11.010;2023-02-28T14:23:13;6.03;;;4.73;;
16998;SDS011;10211;49.476;11.010;2023-02-28T14:25:47;9.67;;;5.10;;
16998;SDS011;10211;49.476;11.010;2023-02-28T14:28:41;7.27;;;5.03;;
16998;SDS011;10211;49.476;11.010;2023-02-28T14:31:17;5.87;;;4.77;;
16998;SDS011;10211;49.476;11.010;2023-02-28T14:34:12;7.53;;;4.87;;
16998;SDS011;10211;49.476;11.010;2023-02-28T14:36:53;6.67;;;4.80;;
16998;SDS011;10211;49.476;11.010;2023-02-28T14:39:25;7.17;;;4.83;;
16998;SDS011;10211;49.476;11.010;2023-02-28T14:41:56;7.33;;;5.13;;
16998;SDS011;10211;49.476;11.010;2023-02-28T14:44:25;8.23;;;5.30;;
16998;SDS011;10211;49.476;11.010;2023-02-28T14:46:54;5.77;;;4.43;;
16998;SDS011;10211;49.476;11.010;2023-02-28T14:49:24;7.93;;;5.10;;
16998;SDS011;10211;49.476;11.010;2023-02-28T14:52:02;6.80;;;4.70;;
16998;SDS011;10211;49.476;11.010;2023-02-28T14:54:34;7.73;;;6.13;;
16998;SDS011;10211;49.476;11.010;2023-02-28T14:57:01;6.33;;;4.73;;
16998;SDS011;10211;49.476;11.010;2023-02-28T14:59:29;8.63;;;5.50;;
16998;SDS011;10211;49.476;11.010;2023-02-28T15:02:17;8.30;;;5.43;;
16998;SDS011;10211;49.476;11.010;2023-02-28T15:04:51;9.20;;;5.83;;
16998;SDS011;10211;49.476;11.010;2023-02-28T15:07:21;7.03;;;4.80;;
16998;SDS011;10211;49.476;11.010;2023-02-28T15:10:05;6.90;;;4.47;;
16998;SDS011;10211;49.476;11.010;2023-02-28T15:12:34;8.70;;;4.97;;
16998;SDS011;10211;49.476;11.010;2023-02-28T15:15:01;7.13;;;5.10;;
16998;SDS011;10211;49.476;11.010;2023-02-28T15:17:29;8.60;;;5.43;;
16998;SDS011;10211;49.476;11.010;2023-02-28T15:19:56;8.53;;;4.93;;